sensor_id;sensor_type;location;lat;lon;timestamp;P1;durP1;ratioP1;P2;durP2;ratioP2
70313;SDS011;71040;47.526;18.986;2024-03-23T00:55:25;4.57;;;2.88;;
70313;SDS011;71040;47.526;18.986;2024-03-23T01:00:28;4.43;;;2.85;;
70313;SDS011;71040;47.526;18.986;2024-03-23T01:05:33;5.22;;;3.10;;
70313;SDS011;71040;47.526;18.986;2024-03-23T01:10:34;4.90;;;3.17;;
70313;SDS011;71040;47.526;18.986;2024-03-23T01:15:34;3.90;;;3.00;;
70313;SDS011;71040;47.526;18.986;2024-03-23T01:20:39;5.05;;;3.28;;
70313;SDS011;71040;47.526;18.986;2024-03-23T01:25:40;4.17;;;2.97;;
70313;SDS011;71040;47.526;18.986;2024-03-23T01:30:40;5.47;;;3.10;;
70313;SDS011;71040;47.526;18.986;2024-03-23T01:35:40;5.07;;;3.63;;
70313;SDS011;71040;47.526;18.986;2024-03-23T01:40:41;5.03;;;3.50;;
70313;SDS011;71040;47.526;18.986;2024-03-23T01:45:41;5.50;;;3.70;;
70313;SDS011;71040;47.526;18.986;2024-03-23T01:50:42;4.55;;;3.10;;
70313;SDS011;71040;47.526;18.986;2024-03-23T01:55:42;4.53;;;3.00;;
70313;SDS011;71040;47.526;18.986;2024-03-23T02:00:43;4.88;;;3.80;;
70313;SDS011;71040;47.526;18.986;2024-03-23T02:05:43;5.43;;;3.70;;
70313;SDS011;71040;47.526;18.986;2024-03-23T02:10:48;6.05;;;3.63;;
70313;SDS011;71040;47.526;18.986;2024-03-23T02:15:50;5.80;;;3.75;;
70313;SDS011;71040;47.526;18.986;2024-03-23T02:20:50;5.67;;;3.63;;
70313;SDS011;71040;47.526;18.986;2024-03-23T02:25:51;5.53;;;3.77;;
70313;SDS011;71040;47.526;18.986;2024-03-23T02:30:53;6.28;;;3.83;;
70313;SDS011;71040;47.526;18.986;2024-03-23T02:35:56;6.13;;;4.03;;
70313;SDS011;71040;47.526;18.986;2024-03-23T02:41:06;5.70;;;4.07;;
70313;SDS011;71040;47.526;18.986;2024-03-23T02:46:07;7.47;;;4.00;;
70313;SDS011;71040;47.526;18.986;2024-03-23T02:51:09;6.25;;;3.88;;
70313;SDS011;71040;47.526;18.986;2024-03-23T02:56:13;5.97;;;4.35;;
70313;SDS011;71040;47.526;18.986;2024-03-23T03:01:15;6.82;;;4.30;;
70313;SDS011;71040;47.526;18.986;2024-03-23T03:06:22;8.77;;;5.40;;
70313;SDS011;71040;47.526;18.986;2024-03-23T03:11:26;8.85;;;5.30;;
70313;SDS011;71040;47.526;18.986;2024-03-23T03:16:26;6.88;;;4.75;;
70313;SDS011;71040;47.526;18.986;2024-03-23T03:21:27;7.68;;;5.13;;
70313;SDS011;71040;47.526;18.986;2024-03-23T03:26:28;6.95;;;4.72;;
70313;SDS011;71040;47.526;18.986;2024-03-23T03:31:28;7.77;;;5.60;;
70313;SDS011;71040;47.526;18.986;2024-03-23T03:36:28;9.27;;;5.80;;
70313;SDS011;71040;47.526;18.986;2024-03-23T03:41:31;7.53;;;5.03;;
70313;SDS011;71040;47.526;18.986;2024-03-23T03:46:32;8.82;;;5.70;;
70313;SDS011;71040;47.526;18.986;2024-03-23T03:51:35;9.37;;;6.47;;
70313;SDS011;71040;47.526;18.986;2024-03-23T03:56:38;9.20;;;5.95;;
70313;SDS011;71040;47.526;18.986;2024-03-23T04:01:38;8.37;;;5.10;;
70313;SDS011;71040;47.526;18.986;2024-03-23T04:06:41;8.27;;;5.30;;
70313;SDS011;71040;47.526;18.986;2024-03-23T04:11:42;9.85;;;6.22;;
70313;SDS011;71040;47.526;18.986;2024-03-23T04:16:45;9.18;;;5.70;;
70313;SDS011;71040;47.526;18.986;2024-03-23T04:21:45;10.68;;;6.65;;
70313;SDS011;71040;47.526;18.986;2024-03-23T04:26:46;10.33;;;6.47;;
70313;SDS011;71040;47.526;18.986;2024-03-23T04:31:47;10.25;;;6.88;;
70313;SDS011;71040;47.526;18.986;2024-03-23T04:36:50;10.07;;;7.57;;
70313;SDS011;71040;47.526;18.986;2024-03-23T04:41:52;9.68;;;6.28;;
70313;SDS011;71040;47.526;18.986;2024-03-23T04:46:55;9.73;;;6.53;;
70313;SDS011;71040;47.526;18.986;2024-03-23T04:51:55;10.77;;;7.25;;
70313;SDS011;71040;47.526;18.986;2024-03-23T04:56:56;10.70;;;7.07;;
70313;SDS011;71040;47.526;18.986;2024-03-23T05:01:59;12.60;;;8.50;;
70313;SDS011;71040;47.526;18.986;2024-03-23T05:07:00;10.77;;;7.05;;
70313;SDS011;71040;47.526;18.986;2024-03-23T05:12:00;9.37;;;7.23;;
70313;SDS011;71040;47.526;18.986;2024-03-23T05:17:03;12.32;;;8.02;;
70313;SDS011;71040;47.526;18.986;2024-03-23T05:22:06;10.80;;;7.75;;
70313;SDS011;71040;47.526;18.986;2024-03-23T05:27:07;12.35;;;8.40;;
70313;SDS011;71040;47.526;18.986;2024-03-23T05:32:07;13.50;;;8.33;;
70313;SDS011;71040;47.526;18.986;2024-03-23T05:37:07;13.27;;;9.17;;
70313;SDS011;71040;47.526;18.986;2024-03-23T05:42:08;11.63;;;8.27;;
70313;SDS011;71040;47.526;18.986;2024-03-23T05:47:08;14.80;;;8.17;;
70313;SDS011;71040;47.526;18.986;2024-03-23T05:52:09;12.27;;;8.63;;
70313;SDS011;71040;47.526;18.986;2024-03-23T05:57:09;14.07;;;9.18;;
70313;SDS011;71040;47.526;18.986;2024-03-23T06:02:14;12.93;;;8.48;;
70313;SDS011;71040;47.526;18.986;2024-03-23T06:07:14;12.18;;;8.20;;
70313;SDS011;71040;47.526;18.986;2024-03-23T06:12:19;11.73;;;7.75;;
70313;SDS011;71040;47.526;18.986;2024-03-23T06:17:21;12.07;;;7.68;;
70313;SDS011;71040;47.526;18.986;2024-03-23T06:22:24;12.20;;;7.78;;
70313;SDS011;71040;47.526;18.986;2024-03-23T06:27:24;12.00;;;7.70;;
70313;SDS011;71040;47.526;18.986;2024-03-23T06:32:27;10.23;;;6.75;;
70313;SDS011;71040;47.526;18.986;2024-03-23T06:37:31;9.93;;;6.90;;
70313;SDS011;71040;47.526;18.986;2024-03-23T06:42:35;8.90;;;5.53;;
70313;SDS011;71040;47.526;18.986;2024-03-23T06:47:36;9.77;;;6.65;;
70313;SDS011;71040;47.526;18.986;2024-03-23T06:52:37;7.63;;;5.35;;
70313;SDS011;71040;47.526;18.986;2024-03-23T06:57:37;9.00;;;5.97;;
70313;SDS011;71040;47.526;18.986;2024-03-23T07:02:40;7.85;;;5.30;;
70313;SDS011;71040;47.526;18.986;2024-03-23T07:07:50;7.65;;;5.00;;
70313;SDS011;71040;47.526;18.986;2024-03-23T07:12:53;8.00;;;4.57;;
70313;SDS011;71040;47.526;18.986;2024-03-23T07:17:55;6.40;;;3.78;;
70313;SDS011;71040;47.526;18.986;2024-03-23T07:22:58;6.53;;;4.57;;
70313;SDS011;71040;47.526;18.986;2024-03-23T07:28:01;6.53;;;4.50;;
70313;SDS011;71040;47.526;18.986;2024-03-23T07:33:01;7.03;;;4.87;;
70313;SDS011;71040;47.526;18.986;2024-03-23T07:38:02;7.07;;;4.17;;
70313;SDS011;71040;47.526;18.986;2024-03-23T07:43:05;7.97;;;4.68;;
70313;SDS011;71040;47.526;18.986;2024-03-23T07:48:05;7.73;;;4.77;;
70313;SDS011;71040;47.526;18.986;2024-03-23T07:53:06;7.55;;;5.00;;
70313;SDS011;71040;47.526;18.986;2024-03-23T07:58:07;6.77;;;4.33;;
70313;SDS011;71040;47.526;18.986;2024-03-23T08:03:07;8.67;;;4.70;;
70313;SDS011;71040;47.526;18.986;2024-03-23T08:08:10;7.70;;;4.93;;
70313;SDS011;71040;47.526;18.986;2024-03-23T08:13:11;7.88;;;5.03;;
70313;SDS011;71040;47.526;18.986;2024-03-23T08:18:11;7.30;;;5.17;;
70313;SDS011;71040;47.526;18.986;2024-03-23T08:23:15;8.40;;;5.18;;
70313;SDS011;71040;47.526;18.986;2024-03-23T08:28:15;7.47;;;5.43;;
70313;SDS011;71040;47.526;18.986;2024-03-23T08:33:19;6.80;;;5.03;;
70313;SDS011;71040;47.526;18.986;2024-03-23T08:38:22;6.32;;;4.60;;
70313;SDS011;71040;47.526;18.986;2024-03-23T08:43:24;7.70;;;5.50;;
70313;SDS011;71040;47.526;18.986;2024-03-23T08:48:25;8.07;;;4.72;;
70313;SDS011;71040;47.526;18.986;2024-03-23T08:53:27;6.53;;;4.45;;
70313;SDS011;71040;47.526;18.986;2024-03-23T08:58:31;7.00;;;4.93;;
70313;SDS011;71040;47.526;18.986;2024-03-23T09:03:36;6.40;;;4.20;;
70313;SDS011;71040;47.526;18.986;2024-03-23T09:08:40;8.02;;;4.38;;
70313;SDS011;71040;47.526;18.986;2024-03-23T09:13:50;6.15;;;4.80;;
70313;SDS011;71040;47.526;18.986;2024-03-23T09:18:55;6.28;;;4.88;;
70313;SDS011;71040;47.526;18.986;2024-03-23T09:23:55;6.95;;;4.95;;
70313;SDS011;71040;47.526;18.986;2024-03-23T09:28:56;6.67;;;4.33;;
70313;SDS011;71040;47.526;18.986;2024-03-23T09:33:59;6.83;;;5.13;;
70313;SDS011;71040;47.526;18.986;2024-03-23T09:39:06;8.93;;;4.93;;
70313;SDS011;71040;47.526;18.986;2024-03-23T09:44:09;7.65;;;5.40;;
70313;SDS011;71040;47.526;18.986;2024-03-23T09:49:12;12.77;;;5.75;;
70313;SDS011;71040;47.526;18.986;2024-03-23T09:54:12;8.67;;;5.70;;
70313;SDS011;71040;47.526;18.986;2024-03-23T09:59:12;8.43;;;5.83;;
70313;SDS011;71040;47.526;18.986;2024-03-23T10:04:35;8.45;;;5.65;;
70313;SDS011;71040;47.526;18.986;2024-03-23T10:09:40;10.75;;;5.85;;
70313;SDS011;71040;47.526;18.986;2024-03-23T10:14:40;9.05;;;5.70;;
70313;SDS011;71040;47.526;18.986;2024-03-23T10:19:46;6.78;;;4.55;;
70313;SDS011;71040;47.526;18.986;2024-03-23T10:24:49;6.85;;;4.75;;
70313;SDS011;71040;47.526;18.986;2024-03-23T10:29:50;16.15;;;8.02;;
70313;SDS011;71040;47.526;18.986;2024-03-23T10:34:53;15.30;;;8.05;;
70313;SDS011;71040;47.526;18.986;2024-03-23T10:39:53;13.00;;;7.50;;
70313;SDS011;71040;47.526;18.986;2024-03-23T10:44:53;13.33;;;7.17;;
70313;SDS011;71040;47.526;18.986;2024-03-23T10:49:56;9.75;;;6.78;;
70313;SDS011;71040;47.526;18.986;2024-03-23T10:54:56;10.63;;;6.93;;
70313;SDS011;71040;47.526;18.986;2024-03-23T11:00:01;11.30;;;7.20;;
70313;SDS011;71040;47.526;18.986;2024-03-23T11:05:27;9.38;;;5.18;;
70313;SDS011;71040;47.526;18.986;2024-03-23T11:10:40;10.07;;;5.20;;
70313;SDS011;71040;47.526;18.986;2024-03-23T11:15:41;11.63;;;5.35;;
70313;SDS011;71040;47.526;18.986;2024-03-23T11:20:43;8.53;;;5.13;;
70313;SDS011;71040;47.526;18.986;2024-03-23T11:25:46;34.88;;;20.73;;
70313;SDS011;71040;47.526;18.986;2024-03-23T11:30:49;7.10;;;5.30;;
70313;SDS011;71040;47.526;18.986;2024-03-23T11:35:49;7.70;;;4.70;;
70313;SDS011;71040;47.526;18.986;2024-03-23T11:40:51;9.45;;;4.93;;
70313;SDS011;71040;47.526;18.986;2024-03-23T11:45:54;7.90;;;4.53;;
70313;SDS011;71040;47.526;18.986;2024-03-23T11:50:56;6.47;;;4.00;;
70313;SDS011;71040;47.526;18.986;2024-03-23T11:55:58;5.85;;;3.88;;
70313;SDS011;71040;47.526;18.986;2024-03-23T12:01:00;7.25;;;4.25;;
70313;SDS011;71040;47.526;18.986;2024-03-23T12:06:07;7.90;;;3.85;;
70313;SDS011;71040;47.526;18.986;2024-03-23T12:11:13;14.30;;;4.18;;
70313;SDS011;71040;47.526;18.986;2024-03-23T12:16:24;9.20;;;3.53;;
70313;SDS011;71040;47.526;18.986;2024-03-23T12:21:27;8.77;;;3.33;;
70313;SDS011;71040;47.526;18.986;2024-03-23T12:26:28;15.07;;;3.70;;
70313;SDS011;71040;47.526;18.986;2024-03-23T12:31:28;5.63;;;3.00;;
70313;SDS011;71040;47.526;18.986;2024-03-23T12:36:28;7.93;;;2.80;;
70313;SDS011;71040;47.526;18.986;2024-03-23T12:41:29;3.67;;;2.10;;
70313;SDS011;71040;47.526;18.986;2024-03-23T12:46:31;5.78;;;2.85;;
70313;SDS011;71040;47.526;18.986;2024-03-23T12:51:32;3.40;;;2.55;;
70313;SDS011;71040;47.526;18.986;2024-03-23T12:56:35;4.63;;;2.28;;
70313;SDS011;71040;47.526;18.986;2024-03-23T13:01:35;4.97;;;2.93;;
70313;SDS011;71040;47.526;18.986;2024-03-23T13:06:36;3.63;;;2.07;;
70313;SDS011;71040;47.526;18.986;2024-03-23T13:11:36;5.20;;;2.78;;
70313;SDS011;71040;47.526;18.986;2024-03-23T13:16:39;5.10;;;2.42;;
70313;SDS011;71040;47.526;18.986;2024-03-23T13:21:39;3.47;;;2.07;;
70313;SDS011;71040;47.526;18.986;2024-03-23T13:26:42;3.95;;;2.15;;
70313;SDS011;71040;47.526;18.986;2024-03-23T13:31:45;3.92;;;2.50;;
70313;SDS011;71040;47.526;18.986;2024-03-23T13:36:46;3.33;;;1.80;;
70313;SDS011;71040;47.526;18.986;2024-03-23T13:41:49;3.53;;;2.10;;
70313;SDS011;71040;47.526;18.986;2024-03-23T13:46:50;5.33;;;2.03;;
70313;SDS011;71040;47.526;18.986;2024-03-23T13:51:56;4.03;;;2.00;;
70313;SDS011;71040;47.526;18.986;2024-03-23T13:56:58;3.65;;;2.10;;
70313;SDS011;71040;47.526;18.986;2024-03-23T14:02:03;2.55;;;1.52;;
70313;SDS011;71040;47.526;18.986;2024-03-23T14:07:03;2.73;;;1.67;;
70313;SDS011;71040;47.526;18.986;2024-03-23T14:12:07;3.10;;;1.73;;
70313;SDS011;71040;47.526;18.986;2024-03-23T14:17:09;3.65;;;1.88;;
70313;SDS011;71040;47.526;18.986;2024-03-23T14:22:10;2.85;;;1.80;;
70313;SDS011;71040;47.526;18.986;2024-03-23T14:27:11;2.60;;;1.80;;
70313;SDS011;71040;47.526;18.986;2024-03-23T14:32:11;3.27;;;1.97;;
70313;SDS011;71040;47.526;18.986;2024-03-23T14:37:12;3.27;;;1.63;;
70313;SDS011;71040;47.526;18.986;2024-03-23T14:42:15;1.83;;;1.30;;
70313;SDS011;71040;47.526;18.986;2024-03-23T14:47:18;4.10;;;1.80;;
70313;SDS011;71040;47.526;18.986;2024-03-23T14:52:21;2.17;;;1.42;;
70313;SDS011;71040;47.526;18.986;2024-03-23T14:57:21;4.90;;;1.33;;
70313;SDS011;71040;47.526;18.986;2024-03-23T15:02:22;2.20;;;1.40;;
70313;SDS011;71040;47.526;18.986;2024-03-23T15:07:25;2.45;;;1.50;;
70313;SDS011;71040;47.526;18.986;2024-03-23T15:12:25;2.25;;;1.20;;
70313;SDS011;71040;47.526;18.986;2024-03-23T15:17:26;2.27;;;1.73;;
70313;SDS011;71040;47.526;18.986;2024-03-23T15:22:26;2.85;;;1.73;;
70313;SDS011;71040;47.526;18.986;2024-03-23T15:27:27;3.73;;;1.80;;
70313;SDS011;71040;47.526;18.986;2024-03-23T15:32:27;2.63;;;1.83;;
70313;SDS011;71040;47.526;18.986;2024-03-23T15:37:28;2.83;;;2.00;;
70313;SDS011;71040;47.526;18.986;2024-03-23T15:42:30;3.45;;;1.50;;
70313;SDS011;71040;47.526;18.986;2024-03-23T15:47:33;2.53;;;1.55;;
70313;SDS011;71040;47.526;18.986;2024-03-23T15:52:35;3.40;;;1.55;;
70313;SDS011;71040;47.526;18.986;2024-03-23T15:57:36;3.08;;;1.60;;
70313;SDS011;71040;47.526;18.986;2024-03-23T16:02:42;2.10;;;1.60;;
70313;SDS011;71040;47.526;18.986;2024-03-23T16:07:46;2.10;;;1.20;;
70313;SDS011;71040;47.526;18.986;2024-03-23T16:12:48;2.25;;;1.65;;
70313;SDS011;71040;47.526;18.986;2024-03-23T16:17:49;3.00;;;1.70;;
70313;SDS011;71040;47.526;18.986;2024-03-23T16:22:49;2.53;;;1.43;;
70313;SDS011;71040;47.526;18.986;2024-03-23T16:27:49;2.57;;;1.50;;
70313;SDS011;71040;47.526;18.986;2024-03-23T16:32:50;2.10;;;1.37;;
70313;SDS011;71040;47.526;18.986;2024-03-23T16:37:55;1.75;;;1.23;;
70313;SDS011;71040;47.526;18.986;2024-03-23T16:43:01;1.85;;;1.50;;
70313;SDS011;71040;47.526;18.986;2024-03-23T16:48:06;1.77;;;1.30;;
70313;SDS011;71040;47.526;18.986;2024-03-23T16:53:09;4.18;;;1.80;;
70313;SDS011;71040;47.526;18.986;2024-03-23T16:58:09;1.90;;;1.57;;
70313;SDS011;71040;47.526;18.986;2024-03-23T17:03:12;2.40;;;1.42;;
70313;SDS011;71040;47.526;18.986;2024-03-23T17:08:19;3.50;;;1.50;;
70313;SDS011;71040;47.526;18.986;2024-03-23T17:13:20;2.42;;;1.45;;
70313;SDS011;71040;47.526;18.986;2024-03-23T17:18:20;3.10;;;1.47;;
70313;SDS011;71040;47.526;18.986;2024-03-23T17:23:28;2.23;;;1.60;;
70313;SDS011;71040;47.526;18.986;2024-03-23T17:28:31;2.30;;;1.30;;
70313;SDS011;71040;47.526;18.986;2024-03-23T17:33:31;2.23;;;1.03;;
70313;SDS011;71040;47.526;18.986;2024-03-23T17:38:34;1.52;;;1.13;;
70313;SDS011;71040;47.526;18.986;2024-03-23T17:43:39;1.60;;;1.00;;
70313;SDS011;71040;47.526;18.986;2024-03-23T17:48:39;3.03;;;1.02;;
70313;SDS011;71040;47.526;18.986;2024-03-23T17:53:40;1.23;;;0.75;;
70313;SDS011;71040;47.526;18.986;2024-03-23T17:58:40;2.42;;;0.70;;
70313;SDS011;71040;47.526;18.986;2024-03-23T18:03:43;1.70;;;0.80;;
70313;SDS011;71040;47.526;18.986;2024-03-23T18:08:48;2.05;;;0.70;;
70313;SDS011;71040;47.526;18.986;2024-03-23T18:13:49;1.45;;;0.73;;
70313;SDS011;71040;47.526;18.986;2024-03-23T18:18:49;3.10;;;0.67;;
70313;SDS011;71040;47.526;18.986;2024-03-23T18:23:49;3.57;;;0.90;;
70313;SDS011;71040;47.526;18.986;2024-03-23T18:28:50;1.70;;;0.90;;
70313;SDS011;71040;47.526;18.986;2024-03-23T18:33:53;2.47;;;0.82;;
70313;SDS011;71040;47.526;18.986;2024-03-23T18:38:57;2.13;;;0.80;;
70313;SDS011;71040;47.526;18.986;2024-03-23T18:43:57;1.63;;;0.60;;
70313;SDS011;71040;47.526;18.986;2024-03-23T18:49:00;3.30;;;0.70;;
70313;SDS011;71040;47.526;18.986;2024-03-23T18:54:03;3.83;;;0.55;;
70313;SDS011;71040;47.526;18.986;2024-03-23T18:59:03;1.70;;;0.80;;
70313;SDS011;71040;47.526;18.986;2024-03-23T19:04:08;1.40;;;0.50;;
70313;SDS011;71040;47.526;18.986;2024-03-23T19:09:11;1.07;;;0.40;;
70313;SDS011;71040;47.526;18.986;2024-03-23T19:14:12;1.58;;;0.60;;
70313;SDS011;71040;47.526;18.986;2024-03-23T19:19:18;1.00;;;0.50;;
70313;SDS011;71040;47.526;18.986;2024-03-23T19:24:19;3.90;;;0.70;;
70313;SDS011;71040;47.526;18.986;2024-03-23T19:29:28;3.15;;;0.55;;
70313;SDS011;71040;47.526;18.986;2024-03-23T19:34:31;3.15;;;1.08;;
70313;SDS011;71040;47.526;18.986;2024-03-23T19:39:31;1.43;;;0.60;;
70313;SDS011;71040;47.526;18.986;2024-03-23T19:44:32;3.33;;;0.60;;
70313;SDS011;71040;47.526;18.986;2024-03-23T19:49:35;1.23;;;0.50;;
70313;SDS011;71040;47.526;18.986;2024-03-23T19:54:36;0.90;;;0.35;;
70313;SDS011;71040;47.526;18.986;2024-03-23T19:59:37;3.33;;;0.50;;
70313;SDS011;71040;47.526;18.986;2024-03-23T20:04:37;2.40;;;0.20;;
70313;SDS011;71040;47.526;18.986;2024-03-23T20:09:37;2.00;;;0.63;;
70313;SDS011;71040;47.526;18.986;2024-03-23T20:14:42;1.77;;;0.32;;
70313;SDS011;71040;47.526;18.986;2024-03-23T20:19:47;1.33;;;0.38;;
70313;SDS011;71040;47.526;18.986;2024-03-23T20:24:49;2.22;;;0.28;;
70313;SDS011;71040;47.526;18.986;2024-03-23T20:29:50;1.13;;;0.43;;
70313;SDS011;71040;47.526;18.986;2024-03-23T20:34:52;1.88;;;0.20;;
70313;SDS011;71040;47.526;18.986;2024-03-23T20:39:56;0.50;;;0.30;;
70313;SDS011;71040;47.526;18.986;2024-03-23T20:44:59;1.02;;;0.40;;
70313;SDS011;71040;47.526;18.986;2024-03-23T20:49:59;0.70;;;0.20;;
70313;SDS011;71040;47.526;18.986;2024-03-23T20:55:02;1.20;;;0.20;;
70313;SDS011;71040;47.526;18.986;2024-03-23T21:00:02;0.60;;;0.30;;
70313;SDS011;71040;47.526;18.986;2024-03-23T21:05:11;2.05;;;0.63;;
70313;SDS011;71040;47.526;18.986;2024-03-23T21:10:17;1.25;;;0.60;;
70313;SDS011;71040;47.526;18.986;2024-03-23T21:15:19;0.90;;;0.30;;
70313;SDS011;71040;47.526;18.986;2024-03-23T21:20:20;1.08;;;0.20;;
70313;SDS011;71040;47.526;18.986;2024-03-23T21:25:20;0.30;;;0.13;;
70313;SDS011;71040;47.526;18.986;2024-03-23T21:30:23;0.60;;;0.15;;
70313;SDS011;71040;47.526;18.986;2024-03-23T21:35:23;0.50;;;0.28;;
70313;SDS011;71040;47.526;18.986;2024-03-23T21:40:29;0.85;;;0.40;;
70313;SDS011;71040;47.526;18.986;2024-03-23T21:45:30;0.70;;;0.20;;
70313;SDS011;71040;47.526;18.986;2024-03-23T21:50:31;0.73;;;0.28;;
70313;SDS011;71040;47.526;18.986;2024-03-23T21:55:32;0.65;;;0.20;;
70313;SDS011;71040;47.526;18.986;2024-03-23T22:00:32;0.50;;;0.20;;
70313;SDS011;71040;47.526;18.986;2024-03-23T22:05:32;0.80;;;0.30;;
70313;SDS011;71040;47.526;18.986;2024-03-23T22:10:34;0.57;;;0.20;;
70313;SDS011;71040;47.526;18.986;2024-03-23T22:15:38;0.70;;;0.20;;
70313;SDS011;71040;47.526;18.986;2024-03-23T22:20:38;0.60;;;0.20;;
70313;SDS011;71040;47.526;18.986;2024-03-23T22:25:47;0.55;;;0.20;;
70313;SDS011;71040;47.526;18.986;2024-03-23T22:30:57;1.00;;;0.20;;
70313;SDS011;71040;47.526;18.986;2024-03-23T22:35:59;0.52;;;0.20;;
70313;SDS011;71040;47.526;18.986;2024-03-23T22:41:03;0.77;;;0.20;;
70313;SDS011;71040;47.526;18.986;2024-03-23T22:46:06;0.63;;;0.20;;
70313;SDS011;71040;47.526;18.986;2024-03-23T22:51:11;0.82;;;0.20;;
70313;SDS011;71040;47.526;18.986;2024-03-23T22:56:12;0.38;;;0.20;;
70313;SDS011;71040;47.526;18.986;2024-03-23T23:01:13;1.10;;;0.20;;
70313;SDS011;71040;47.526;18.986;2024-03-23T23:06:18;0.68;;;0.20;;
70313;SDS011;71040;47.526;18.986;2024-03-23T23:11:18;1.13;;;0.35;;
70313;SDS011;71040;47.526;18.986;2024-03-23T23:16:19;0.30;;;0.17;;
70313;SDS011;71040;47.526;18.986;2024-03-23T23:21:19;0.30;;;0.20;;
70313;SDS011;71040;47.526;18.986;2024-03-23T23:26:22;0.50;;;0.20;;
70313;SDS011;71040;47.526;18.986;2024-03-23T23:31:23;0.30;;;0.20;;
70313;SDS011;71040;47.526;18.986;2024-03-23T23:36:26;0.50;;;0.27;;
70313;SDS011;71040;47.526;18.986;2024-03-23T23:41:26;0.47;;;0.20;;
70313;SDS011;71040;47.526;18.986;2024-03-23T23:46:29;0.77;;;0.30;;
70313;SDS011;71040;47.526;18.986;2024-03-23T23:51:29;0.40;;;0.20;;
70313;SDS011;71040;47.526;18.986;2024-03-23T23:56:32;0.85;;;0.30;;
